Time;durP1;ratioP1;P1;durP2;ratioP2;P2;SDS_P1;SDS_P2;PMS_P1;PMS_P2;Temp;Humidity;BMP_temperature;BMP_pressure;BME280_temperature;BME280_humidity;BME280_pressure;Samples;Min_cycle;Max_cycle;Signal;HPM_P1;HPM_P2
2022/09/18 00:00:18;;;;;;;6.80;1.57;;;11.70;99.90;;;;;;5122399;27;20447;-71
2022/09/18 00:03:11;;;;;;;6.63;1.90;;;11.60;99.90;;;;;;5125297;27;20497;-71
2022/09/18 00:06:14;;;;;;;4.03;1.40;;;11.60;99.90;;;;;;5121332;27;20443;-71
2022/09/18 00:09:19;;;;;;;4.50;1.70;;;11.60;99.90;;;;;;5123672;27;20443;-71
2022/09/18 00:12:24;;;;;;;6.20;1.97;;;11.60;99.90;;;;;;5119474;27;21116;-71
2022/09/18 00:18:57;;;;;;;3.43;1.77;;;11.40;99.90;;;;;;5112524;27;20556;-71
2022/09/18 00:21:59;;;;;;;3.57;1.50;;;11.40;99.90;;;;;;5126404;27;20494;-71
2022/09/18 00:25:07;;;;;;;6.70;1.90;;;11.40;99.90;;;;;;5124522;27;20489;-71
2022/09/18 00:28:04;;;;;;;6.53;1.90;;;11.50;99.90;;;;;;5123593;27;20842;-71
2022/09/18 00:31:07;;;;;;;5.13;1.37;;;11.40;99.90;;;;;;5123824;27;20459;-71
2022/09/18 00:34:19;;;;;;;7.20;2.07;;;11.40;99.90;;;;;;5121732;27;20491;-70
2022/09/18 00:37:29;;;;;;;6.23;1.70;;;11.40;99.90;;;;;;5122431;27;20458;-71
2022/09/18 00:40:52;;;;;;;4.00;1.67;;;11.40;99.90;;;;;;5125255;27;20450;-71
2022/09/18 00:43:48;;;;;;;5.90;1.70;;;11.40;99.90;;;;;;5119394;27;20506;-71
2022/09/18 00:47:17;;;;;;;7.47;2.00;;;11.30;99.90;;;;;;5103253;27;20875;-71
2022/09/18 00:50:24;;;;;;;6.07;1.70;;;11.40;99.90;;;;;;5127835;27;20451;-71
2022/09/18 00:53:19;;;;;;;7.50;1.70;;;11.30;99.90;;;;;;5119720;27;20481;-71
2022/09/18 00:59:29;;;;;;;6.83;1.70;;;11.40;99.90;;;;;;5121494;27;20825;-70
2022/09/18 01:02:47;;;;;;;5.87;1.87;;;11.40;99.90;;;;;;5123880;27;21074;-70
2022/09/18 01:06:15;;;;;;;5.37;1.97;;;11.40;99.90;;;;;;5121888;27;20588;-70
2022/09/18 01:09:19;;;;;;;6.47;1.90;;;11.40;99.90;;;;;;5118800;27;20457;-70
2022/09/18 01:12:28;;;;;;;4.63;1.50;;;11.40;99.90;;;;;;5116494;28;20481;-71
2022/09/18 01:15:57;;;;;;;4.07;1.90;;;11.40;99.90;;;;;;5124033;28;20447;-71
2022/09/18 01:19:21;;;;;;;;;;;;;;;;;;;;;
2022/09/18 01:22:40;;;;;;;6.00;1.50;;;11.40;99.90;;;;;;5128373;27;20481;-70
2022/09/18 01:25:56;;;;;;;6.83;1.87;;;11.40;99.90;;;;;;5125504;27;20600;-70
2022/09/18 01:29:14;;;;;;;8.00;2.07;;;11.40;99.90;;;;;;5128979;27;20478;-70
2022/09/18 01:32:20;;;;;;;3.80;1.30;;;11.40;99.90;;;;;;5120613;27;20481;-71
2022/09/18 01:35:39;;;;;;;;;;;;;;;;;;;;;
2022/09/18 01:38:43;;;;;;;5.50;1.37;;;11.40;99.90;;;;;;5129971;27;20455;-71
2022/09/18 01:41:49;;;;;;;4.93;1.80;;;11.40;99.90;;;;;;5126520;27;20470;-71
2022/09/18 01:45:04;;;;;;;5.20;2.17;;;11.40;99.90;;;;;;5128455;27;21206;-70
2022/09/18 01:48:29;;;;;;;4.03;1.37;;;11.40;99.90;;;;;;5124378;27;20964;-71
2022/09/18 01:55:01;;;;;;;5.17;1.80;;;11.40;99.90;;;;;;5126926;27;20475;-70
2022/09/18 01:58:17;;;;;;;4.33;1.60;;;11.30;99.90;;;;;;5127727;27;20450;-70
2022/09/18 02:01:33;;;;;;;4.57;1.47;;;11.30;99.90;;;;;;5124541;27;21016;-70
2022/09/18 02:04:47;;;;;;;4.77;1.60;;;11.40;99.90;;;;;;5123428;27;20486;-71
2022/09/18 02:08:16;;;;;;;5.50;1.47;;;11.30;99.90;;;;;;5126255;27;20515;-70
2022/09/18 02:11:39;;;;;;;8.70;1.70;;;11.20;99.90;;;;;;5122041;27;20537;-71
2022/09/18 02:15:01;;;;;;;4.87;1.90;;;11.30;99.90;;;;;;5118739;27;20490;-70
2022/09/18 02:18:18;;;;;;;8.90;2.17;;;11.20;99.90;;;;;;5124808;27;20546;-71
2022/09/18 02:21:17;;;;;;;6.07;1.70;;;11.20;99.90;;;;;;5121985;27;20455;-70
2022/09/18 02:24:49;;;;;;;4.93;2.00;;;11.10;99.90;;;;;;5124299;27;20470;-71
2022/09/18 02:31:25;;;;;;;6.40;1.93;;;11.10;99.90;;;;;;5107685;27;20832;-70
2022/09/18 02:34:39;;;;;;;6.27;1.87;;;11.10;99.90;;;;;;5123152;27;20463;-70
2022/09/18 02:37:53;;;;;;;7.93;2.20;;;11.10;99.90;;;;;;5076915;27;20462;-70
2022/09/18 02:41:01;;;;;;;5.43;1.53;;;11.00;99.90;;;;;;5124319;27;20455;-70
2022/09/18 02:44:01;;;;;;;6.30;1.93;;;11.10;99.90;;;;;;5129598;27;20479;-71
2022/09/18 02:47:26;;;;;;;6.90;1.93;;;11.00;99.90;;;;;;5127550;27;20451;-70
2022/09/18 02:50:57;;;;;;;4.33;1.80;;;11.00;99.90;;;;;;5128898;27;20859;-70
2022/09/18 02:53:54;;;;;;;6.07;1.53;;;11.00;99.90;;;;;;5127578;27;20482;-70
2022/09/18 02:57:18;;;;;;;;;;;;;;;;;;;;;
2022/09/18 03:00:18;;;;;;;4.27;1.80;;;11.00;99.90;;;;;;5109128;27;21018;-70
2022/09/18 03:03:18;;;;;;;7.23;1.93;;;10.90;99.90;;;;;;5117052;27;20494;-70
2022/09/18 03:06:47;;;;;;;3.50;1.47;;;10.90;99.90;;;;;;5122928;27;20492;-70
2022/09/18 03:09:45;;;;;;;5.20;1.67;;;10.90;99.90;;;;;;5116686;27;20451;-70
2022/09/18 03:16:12;;;;;;;6.97;1.70;;;10.90;99.90;;;;;;5119415;27;20458;-70
2022/09/18 03:19:10;;;;;;;11.40;2.00;;;10.90;99.90;;;;;;5122369;27;20471;-70
2022/09/18 03:22:23;;;;;;;9.40;1.53;;;10.80;99.90;;;;;;5104487;27;20480;-70
2022/09/18 03:25:45;;;;;;;3.83;1.67;;;10.70;99.90;;;;;;5127154;27;20502;-70
2022/09/18 03:28:52;;;;;;;5.10;1.50;;;10.70;99.90;;;;;;5113260;27;20457;-70
2022/09/18 03:31:46;;;;;;;3.73;1.40;;;10.70;99.90;;;;;;5123648;27;20466;-70
2022/09/18 03:35:00;;;;;;;3.33;1.40;;;10.70;99.90;;;;;;5116598;27;20692;-70
2022/09/18 03:38:11;;;;;;;5.17;1.60;;;10.70;99.90;;;;;;5121190;27;20443;-70
2022/09/18 03:41:21;;;;;;;3.30;1.20;;;10.70;99.90;;;;;;5116815;27;20482;-70
2022/09/18 03:47:36;;;;;;;3.87;1.70;;;10.60;99.90;;;;;;5121098;27;20469;-70
2022/09/18 03:50:55;;;;;;;3.40;1.30;;;10.60;99.90;;;;;;5122476;27;20447;-70
2022/09/18 03:54:09;;;;;;;4.43;1.87;;;10.60;99.90;;;;;;5119675;27;20571;-70
2022/09/18 03:57:05;;;;;;;8.20;1.80;;;10.60;99.90;;;;;;5121312;27;20459;-70
2022/09/18 04:00:11;;;;;;;3.73;1.40;;;10.60;99.90;;;;;;5120131;27;20484;-70
2022/09/18 04:03:06;;;;;;;2.80;1.50;;;10.60;99.90;;;;;;5116801;27;20844;-70
2022/09/18 04:05:56;;;;;;;4.83;1.67;;;10.60;99.90;;;;;;5122951;27;20994;-70
2022/09/18 04:08:52;;;;;;;5.07;1.33;;;10.50;99.90;;;;;;5123354;27;20466;-70
2022/09/18 04:11:44;;;;;;;6.40;1.60;;;10.40;99.90;;;;;;5114320;27;20904;-70
2022/09/18 04:18:16;;;;;;;4.63;1.50;;;10.50;99.90;;;;;;5121000;27;20458;-70
2022/09/18 04:21:25;;;;;;;3.80;1.53;;;10.50;99.90;;;;;;5119212;27;20464;-70
2022/09/18 04:24:49;;;;;;;5.63;1.87;;;10.50;99.90;;;;;;5111999;27;20484;-70
2022/09/18 04:28:12;;;;;;;2.20;1.17;;;10.50;99.90;;;;;;5119319;27;20455;-70
2022/09/18 04:31:26;;;;;;;4.77;1.70;;;10.50;99.90;;;;;;5123804;27;20454;-70
2022/09/18 04:34:43;;;;;;;4.10;1.70;;;10.40;99.90;;;;;;5123139;27;20503;-71
2022/09/18 04:41:12;;;;;;;7.77;1.60;;;10.40;99.90;;;;;;5120983;27;20458;-71
2022/09/18 04:48:08;;;;;;;5.80;1.50;;;10.30;99.90;;;;;;5123058;27;20531;-71
2022/09/18 04:51:22;;;;;;;6.10;1.40;;;10.30;99.90;;;;;;5113571;27;20474;-71
2022/09/18 04:54:17;;;;;;;2.70;1.20;;;10.30;99.90;;;;;;5115284;27;20459;-71
2022/09/18 04:57:34;;;;;;;4.47;1.23;;;10.20;99.90;;;;;;5116963;27;20510;-71
2022/09/18 05:00:51;;;;;;;4.27;1.27;;;10.30;99.90;;;;;;5116782;27;20535;-71
2022/09/18 05:04:07;;;;;;;3.20;1.33;;;10.20;99.90;;;;;;5117311;27;21167;-71
2022/09/18 05:10:46;;;;;;;4.83;1.10;;;10.20;99.90;;;;;;5117351;27;20451;-70
2022/09/18 05:14:18;;;;;;;;;;;;;;;;;;;;;
2022/09/18 05:17:15;;;;;;;3.87;1.27;;;10.20;99.90;;;;;;5122176;28;20523;-71
2022/09/18 05:20:24;;;;;;;3.00;1.30;;;10.20;99.90;;;;;;5120683;27;20461;-70
2022/09/18 05:23:36;;;;;;;6.07;1.50;;;10.20;99.90;;;;;;5118994;28;20467;-70
2022/09/18 05:26:51;;;;;;;;;;;;;;;;;;;;;
2022/09/18 05:30:03;;;;;;;4.40;1.17;;;10.30;99.90;;;;;;5122111;27;20573;-70
2022/09/18 05:33:12;;;;;;;4.07;1.40;;;10.30;99.90;;;;;;5115244;27;20562;-70
2022/09/18 05:36:19;;;;;;;5.83;1.53;;;10.30;99.90;;;;;;5116310;27;20547;-70
2022/09/18 05:39:30;;;;;;;3.27;1.60;;;10.20;99.90;;;;;;5119153;27;20946;-70
2022/09/18 05:42:32;;;;;;;5.07;1.57;;;10.30;99.90;;;;;;5117720;27;20497;-71
2022/09/18 05:45:41;;;;;;;3.60;2.00;;;10.20;99.90;;;;;;5120626;28;20475;-70
2022/09/18 05:48:34;;;;;;;4.30;1.60;;;10.20;99.90;;;;;;5118520;27;20453;-70
2022/09/18 05:54:43;;;;;;;3.90;1.60;;;10.20;99.90;;;;;;5101119;28;20519;-70
2022/09/18 05:57:57;;;;;;;6.90;1.87;;;10.20;99.90;;;;;;5114379;27;20843;-70
2022/09/18 06:00:46;;;;;;;6.07;1.50;;;10.30;99.90;;;;;;5114639;27;20477;-70
2022/09/18 06:03:34;;;;;;;3.70;1.60;;;10.30;99.90;;;;;;5108748;27;20471;-70
2022/09/18 06:06:28;;;;;;;4.73;1.50;;;10.30;99.90;;;;;;5098003;27;20479;-70
2022/09/18 06:09:18;;;;;;;5.80;1.60;;;10.30;99.90;;;;;;5121303;27;20443;-70
2022/09/18 06:12:13;;;;;;;4.27;1.40;;;10.30;99.90;;;;;;5122263;27;20475;-70
2022/09/18 06:15:03;;;;;;;2.90;1.50;;;10.30;99.90;;;;;;5119435;27;20474;-70
2022/09/18 06:17:55;;;;;;;6.17;1.73;;;10.30;99.90;;;;;;5121587;27;20604;-70
2022/09/18 06:20:54;;;;;;;5.53;1.67;;;10.30;99.90;;;;;;5116939;27;20455;-70
2022/09/18 06:23:55;;;;;;;4.07;1.83;;;10.30;99.90;;;;;;5112525;27;20475;-70
2022/09/18 06:26:50;;;;;;;6.47;1.70;;;10.40;99.90;;;;;;5117903;27;20478;-71
2022/09/18 06:29:45;;;;;;;6.40;1.50;;;10.40;99.90;;;;;;5118459;27;20458;-69
2022/09/18 06:32:55;;;;;;;5.13;1.63;;;10.40;99.90;;;;;;5121917;27;20474;-70
2022/09/18 06:35:48;;;;;;;4.53;1.67;;;10.40;99.90;;;;;;5125194;27;20439;-70
2022/09/18 06:38:39;;;;;;;3.03;1.57;;;10.40;99.90;;;;;;5124084;27;20450;-70
2022/09/18 06:41:32;;;;;;;4.80;1.43;;;10.40;99.90;;;;;;5121564;27;20486;-71
2022/09/18 06:44:31;;;;;;;3.43;1.50;;;10.40;99.90;;;;;;5119031;27;20554;-71
2022/09/18 06:47:23;;;;;;;6.37;1.90;;;10.40;99.90;;;;;;5118895;27;20482;-71
2022/09/18 06:50:14;;;;;;;6.30;2.10;;;10.50;99.90;;;;;;5125753;27;20966;-70
2022/09/18 06:53:06;;;;;;;7.17;1.30;;;10.50;99.90;;;;;;5123550;27;20459;-71
2022/09/18 06:56:02;;;;;;;4.40;1.40;;;10.50;99.90;;;;;;5123280;27;21235;-71
2022/09/18 06:58:52;;;;;;;3.60;1.60;;;10.50;99.90;;;;;;5113119;27;20459;-71
2022/09/18 07:01:40;;;;;;;6.10;1.77;;;10.40;99.90;;;;;;5114846;27;20479;-71
2022/09/18 07:04:31;;;;;;;5.50;1.70;;;10.40;99.90;;;;;;5111608;27;22363;-71
2022/09/18 07:07:19;;;;;;;5.67;1.60;;;10.40;99.90;;;;;;5115095;27;20485;-70
2022/09/18 07:10:09;;;;;;;4.00;1.90;;;10.50;99.90;;;;;;5108914;27;20454;-72
2022/09/18 07:12:58;;;;;;;5.80;1.73;;;10.60;99.90;;;;;;5111575;27;20484;-72
2022/09/18 07:15:47;;;;;;;3.63;1.60;;;10.60;99.90;;;;;;5115721;27;20462;-70
2022/09/18 07:18:35;;;;;;;4.87;1.73;;;10.60;99.90;;;;;;5119074;27;20451;-71
2022/09/18 07:21:25;;;;;;;5.30;2.10;;;10.60;99.90;;;;;;5113865;27;20485;-71
2022/09/18 07:24:13;;;;;;;7.13;2.23;;;10.70;99.90;;;;;;5122068;27;20459;-70
2022/09/18 07:27:01;;;;;;;5.33;2.23;;;10.70;99.90;;;;;;5122235;27;20475;-70
2022/09/18 07:29:49;;;;;;;7.93;2.10;;;10.80;99.90;;;;;;5125944;27;20456;-70
2022/09/18 07:32:37;;;;;;;3.83;1.37;;;10.90;99.90;;;;;;5114224;27;20471;-70
2022/09/18 07:35:25;;;;;;;7.53;1.70;;;10.90;99.90;;;;;;5121415;27;20489;-70
2022/09/18 07:38:15;;;;;;;5.87;1.80;;;10.90;99.90;;;;;;5117945;27;21002;-70
2022/09/18 07:41:04;;;;;;;4.20;1.17;;;10.90;99.90;;;;;;5114577;27;20507;-70
2022/09/18 07:43:52;;;;;;;5.90;2.10;;;10.80;99.90;;;;;;5122182;27;20467;-71
2022/09/18 07:46:40;;;;;;;7.27;1.73;;;10.80;99.90;;;;;;5123814;27;20855;-71
2022/09/18 07:49:30;;;;;;;5.37;1.47;;;10.80;99.90;;;;;;5118892;27;20538;-69
2022/09/18 07:52:18;;;;;;;2.40;1.17;;;10.80;99.90;;;;;;5121528;27;21155;-70
2022/09/18 07:55:11;;;;;;;3.00;1.30;;;10.90;99.90;;;;;;5122471;27;20470;-71
2022/09/18 07:58:01;;;;;;;5.50;1.50;;;11.00;99.90;;;;;;5120950;27;20445;-70
2022/09/18 08:00:50;;;;;;;6.50;2.27;;;11.10;99.90;;;;;;5118088;27;20459;-70
2022/09/18 08:03:39;;;;;;;3.00;1.70;;;11.10;99.90;;;;;;5119241;27;20857;-70
2022/09/18 08:06:28;;;;;;;3.60;1.40;;;11.10;99.90;;;;;;5127919;27;20455;-70
2022/09/18 08:09:17;;;;;;;2.87;1.37;;;11.20;99.90;;;;;;5127934;27;20442;-70
2022/09/18 08:12:06;;;;;;;2.87;1.53;;;11.20;99.90;;;;;;5115606;27;21025;-70
2022/09/18 08:14:55;;;;;;;3.07;1.30;;;11.20;99.90;;;;;;5121791;27;20470;-70
2022/09/18 08:17:47;;;;;;;4.40;2.13;;;11.30;99.90;;;;;;5121703;27;20455;-70
2022/09/18 08:20:36;;;;;;;8.30;1.73;;;11.20;99.90;;;;;;5122272;27;20474;-70
2022/09/18 08:23:26;;;;;;;7.57;2.43;;;11.30;99.90;;;;;;5123783;27;20482;-70
2022/09/18 08:26:15;;;;;;;4.13;1.20;;;11.30;99.90;;;;;;5125198;27;20448;-70
2022/09/18 08:29:17;;;;;;;5.00;1.50;;;11.40;99.90;;;;;;5123085;27;21445;-72
2022/09/18 08:32:05;;;;;;;5.20;1.70;;;11.50;99.90;;;;;;5120593;27;20558;-70
2022/09/18 08:35:00;;;;;;;2.70;1.27;;;11.60;99.90;;;;;;5121195;27;20506;-70
2022/09/18 08:37:49;;;;;;;2.57;1.67;;;11.70;99.90;;;;;;5121082;27;20551;-70
2022/09/18 08:40:52;;;;;;;3.20;1.90;;;11.70;99.90;;;;;;5122098;27;20467;-71
2022/09/18 08:43:53;;;;;;;3.83;1.40;;;11.80;99.90;;;;;;5114900;27;20497;-70
2022/09/18 08:46:48;;;;;;;7.70;1.80;;;11.70;99.90;;;;;;5114699;27;20871;-71
2022/09/18 08:49:41;;;;;;;6.60;2.07;;;11.70;99.90;;;;;;5120583;27;20478;-70
2022/09/18 08:52:33;;;;;;;5.70;1.37;;;11.60;99.90;;;;;;5118491;27;20471;-70
2022/09/18 08:55:28;;;;;;;4.10;1.60;;;11.60;99.90;;;;;;5117235;27;20463;-69
2022/09/18 08:58:20;;;;;;;6.30;1.47;;;11.70;99.90;;;;;;5111189;27;20440;-70
2022/09/18 09:01:12;;;;;;;5.17;1.40;;;11.70;99.90;;;;;;5120657;27;20851;-70
2022/09/18 09:04:07;;;;;;;5.57;1.90;;;11.80;99.90;;;;;;5121728;27;20466;-70
2022/09/18 09:07:04;;;;;;;2.33;1.90;;;11.90;99.90;;;;;;5123791;27;20792;-70
2022/09/18 09:10:03;;;;;;;7.97;1.83;;;12.00;99.90;;;;;;5123887;27;20443;-70
2022/09/18 09:12:58;;;;;;;4.03;1.70;;;12.00;99.90;;;;;;5111779;27;20480;-70
2022/09/18 09:15:54;;;;;;;6.03;1.83;;;12.00;99.90;;;;;;5122594;28;20452;-71
2022/09/18 09:18:56;;;;;;;4.67;2.57;;;12.00;99.90;;;;;;5123035;27;20451;-71
2022/09/18 09:21:58;;;;;;;3.00;1.50;;;12.10;99.90;;;;;;5118756;28;20858;-70
2022/09/18 09:24:58;;;;;;;1.67;1.07;;;12.10;99.90;;;;;;5124257;28;20985;-70
2022/09/18 09:27:51;;;;;;;4.30;1.40;;;12.10;99.90;;;;;;5123106;28;20475;-70
2022/09/18 09:30:41;;;;;;;4.37;1.40;;;12.20;99.90;;;;;;5122567;28;21048;-70
2022/09/18 09:33:36;;;;;;;1.77;0.97;;;12.10;99.90;;;;;;5120339;28;20494;-70
2022/09/18 09:36:27;;;;;;;4.23;1.37;;;12.10;99.90;;;;;;5126667;28;20466;-70
2022/09/18 09:39:23;;;;;;;2.60;1.40;;;12.10;99.90;;;;;;5124864;27;20455;-70
2022/09/18 09:42:20;;;;;;;3.77;1.27;;;12.10;99.90;;;;;;5123927;27;20474;-70
2022/09/18 09:45:14;;;;;;;3.13;1.20;;;12.00;99.90;;;;;;5126641;27;20455;-70
2022/09/18 09:48:10;;;;;;;2.70;1.20;;;12.10;99.90;;;;;;5129625;27;20564;-70
2022/09/18 09:51:05;;;;;;;1.80;1.30;;;12.10;99.90;;;;;;5125890;27;20447;-69
2022/09/18 09:53:54;;;;;;;2.50;1.10;;;12.10;99.90;;;;;;5120663;27;20479;-70
2022/09/18 09:56:52;;;;;;;3.17;1.30;;;12.20;99.90;;;;;;5125274;27;20447;-70
2022/09/18 09:59:50;;;;;;;3.33;1.00;;;12.30;99.90;;;;;;5127929;27;20500;-70
2022/09/18 10:02:52;;;;;;;3.07;1.17;;;12.30;99.90;;;;;;5125418;27;20483;-70
2022/09/18 10:05:45;;;;;;;3.10;1.47;;;12.30;99.90;;;;;;5119913;27;20461;-71
2022/09/18 10:08:45;;;;;;;4.07;1.20;;;12.30;99.90;;;;;;5122449;27;20471;-70
2022/09/18 10:11:36;;;;;;;2.70;1.10;;;12.40;99.90;;;;;;5122892;27;20473;-70
2022/09/18 10:14:28;;;;;;;4.70;1.37;;;12.40;99.90;;;;;;5125934;27;20477;-70
2022/09/18 10:17:18;;;;;;;3.60;1.23;;;12.50;99.90;;;;;;5123994;27;20451;-71
2022/09/18 10:20:10;;;;;;;6.67;1.60;;;12.50;99.90;;;;;;5128650;27;20487;-70
2022/09/18 10:23:03;;;;;;;3.33;1.40;;;12.60;99.90;;;;;;5121086;27;20540;-69
2022/09/18 10:25:56;;;;;;;4.30;1.30;;;12.70;99.90;;;;;;5128151;27;20969;-70
2022/09/18 10:28:44;;;;;;;4.93;1.90;;;12.80;99.90;;;;;;5120108;27;20998;-70
2022/09/18 10:31:48;;;;;;;2.80;1.20;;;12.80;99.90;;;;;;5123950;27;20471;-70
2022/09/18 10:34:40;;;;;;;1.37;1.10;;;12.90;99.90;;;;;;5124510;27;20467;-70
2022/09/18 10:37:39;;;;;;;2.10;1.00;;;13.00;99.90;;;;;;5123762;27;20451;-70
2022/09/18 10:40:32;;;;;;;2.60;1.37;;;13.10;99.90;;;;;;5126448;27;20451;-70
2022/09/18 10:43:21;;;;;;;4.60;1.70;;;13.20;99.90;;;;;;5125152;27;20863;-70
2022/09/18 10:46:09;;;;;;;4.43;1.23;;;13.20;99.90;;;;;;5123466;27;21319;-70
2022/09/18 10:49:03;;;;;;;3.43;1.57;;;13.20;99.90;;;;;;5122107;27;20474;-70
2022/09/18 10:52:21;;;;;;;5.37;1.77;;;13.20;99.90;;;;;;5113281;27;20481;-70
2022/09/18 10:55:13;;;;;;;3.53;1.40;;;13.00;99.90;;;;;;5125462;27;20471;-70
2022/09/18 10:58:07;;;;;;;4.50;1.03;;;12.60;99.90;;;;;;5127376;27;21078;-70
2022/09/18 11:00:59;;;;;;;3.60;1.00;;;12.40;99.90;;;;;;5125083;27;20455;-70
2022/09/18 11:03:57;;;;;;;1.50;0.90;;;12.30;99.90;;;;;;5124706;27;20506;-70
2022/09/18 11:06:47;;;;;;;1.43;0.73;;;12.20;99.90;;;;;;5118626;27;20575;-71
2022/09/18 11:09:39;;;;;;;2.10;1.10;;;12.20;99.90;;;;;;5115237;27;20467;-71
2022/09/18 11:12:27;;;;;;;4.50;1.40;;;12.20;99.90;;;;;;5118555;27;20827;-70
2022/09/18 11:15:18;;;;;;;3.13;1.40;;;12.20;99.90;;;;;;5120598;27;20474;-70
2022/09/18 11:18:14;;;;;;;3.80;1.10;;;12.30;99.90;;;;;;5120363;27;20443;-71
2022/09/18 11:21:05;;;;;;;6.70;4.87;;;12.40;99.90;;;;;;5121561;27;20451;-70
2022/09/18 11:24:04;;;;;;;2.03;1.20;;;12.60;99.90;;;;;;5118642;27;20571;-70
2022/09/18 11:26:55;;;;;;;5.03;1.10;;;12.70;99.90;;;;;;5123610;27;20815;-71
2022/09/18 11:29:43;;;;;;;1.33;1.10;;;12.80;99.90;;;;;;5124430;27;21005;-70
2022/09/18 11:32:34;;;;;;;3.30;1.00;;;12.90;99.90;;;;;;5109930;27;20471;-70
2022/09/18 11:35:23;;;;;;;2.03;0.83;;;13.00;99.90;;;;;;5124395;27;20471;-71
2022/09/18 11:38:18;;;;;;;2.93;1.07;;;13.00;99.90;;;;;;5121766;27;20969;-70
2022/09/18 11:41:10;;;;;;;2.40;1.00;;;13.20;99.90;;;;;;5121706;27;20463;-70
2022/09/18 11:44:01;;;;;;;2.20;1.10;;;13.40;99.90;;;;;;5123828;27;20478;-70
2022/09/18 11:47:19;;;;;;;2.90;1.20;;;13.40;99.90;;;;;;5122737;27;20455;-71
2022/09/18 11:50:16;;;;;;;1.27;0.97;;;13.60;99.90;;;;;;5115461;27;20463;-70
2022/09/18 11:53:10;;;;;;;3.37;1.00;;;13.60;99.90;;;;;;5120071;27;21014;-71
2022/09/18 11:56:06;;;;;;;3.17;1.20;;;13.50;99.90;;;;;;5120823;27;20455;-71
2022/09/18 11:59:00;;;;;;;3.03;1.10;;;13.20;99.90;;;;;;5116253;27;20436;-71
2022/09/18 12:01:52;;;;;;;3.13;0.97;;;12.90;99.90;;;;;;5118770;27;20849;-70
2022/09/18 12:04:48;;;;;;;3.27;1.00;;;12.80;99.90;;;;;;5112081;27;20471;-72
2022/09/18 12:07:43;;;;;;;3.33;1.17;;;12.70;99.90;;;;;;5112102;27;20472;-72
2022/09/18 12:10:50;;;;;;;2.17;1.07;;;12.70;99.90;;;;;;5115852;27;20458;-70
2022/09/18 12:13:50;;;;;;;4.07;1.10;;;12.70;99.90;;;;;;5114815;27;20487;-70
2022/09/18 12:16:48;;;;;;;3.17;1.13;;;12.70;99.90;;;;;;5118354;27;20455;-70
2022/09/18 12:19:40;;;;;;;5.03;0.90;;;12.80;99.90;;;;;;5111183;27;20446;-71
2022/09/18 12:22:33;;;;;;;3.43;1.40;;;12.90;99.90;;;;;;5117426;27;20986;-70
2022/09/18 12:25:26;;;;;;;3.97;1.30;;;13.20;99.90;;;;;;5119095;27;20496;-70
2022/09/18 12:28:22;;;;;;;4.47;1.10;;;13.50;99.90;;;;;;5123935;27;20447;-70
2022/09/18 12:31:16;;;;;;;2.33;1.23;;;13.70;99.90;;;;;;5118428;27;20451;-71
2022/09/18 12:34:17;;;;;;;3.63;1.50;;;13.90;99.90;;;;;;5119268;27;20470;-70
2022/09/18 12:37:24;;;;;;;4.17;1.03;;;13.70;99.90;;;;;;5120813;27;20439;-71
2022/09/18 12:40:42;;;;;;;4.33;1.20;;;13.60;99.90;;;;;;5119908;27;20499;-71
2022/09/18 12:44:11;;;;;;;2.43;1.30;;;13.40;99.90;;;;;;5115604;27;20479;-71
2022/09/18 12:47:12;;;;;;;3.33;1.07;;;13.30;99.90;;;;;;5124503;27;20814;-71
2022/09/18 12:50:29;;;;;;;5.93;1.73;;;13.30;99.90;;;;;;5120167;27;20470;-71
2022/09/18 12:53:32;;;;;;;2.67;1.23;;;13.30;99.90;;;;;;5117448;27;20511;-71
2022/09/18 12:56:35;;;;;;;3.60;1.77;;;13.20;99.90;;;;;;5115018;27;20820;-71
2022/09/18 12:59:44;;;;;;;2.67;1.30;;;13.00;99.90;;;;;;5106103;27;20818;-71
2022/09/18 13:02:44;;;;;;;4.10;1.87;;;13.00;99.90;;;;;;5115970;27;20462;-70
2022/09/18 13:05:41;;;;;;;2.87;1.10;;;13.00;99.90;;;;;;5113315;27;21047;-70
2022/09/18 13:08:37;;;;;;;3.80;1.30;;;12.90;99.90;;;;;;5107937;27;20440;-69
2022/09/18 13:11:32;;;;;;;1.80;1.07;;;12.90;99.90;;;;;;5115200;27;20475;-70
2022/09/18 13:14:26;;;;;;;2.50;1.07;;;13.10;99.90;;;;;;5111816;27;20470;-69
2022/09/18 13:17:17;;;;;;;1.90;1.00;;;13.90;99.90;;;;;;5120690;27;20447;-71
2022/09/18 13:20:14;;;;;;;3.33;1.30;;;14.80;99.90;;;;;;5119750;27;20470;-71
2022/09/18 13:23:08;;;;;;;2.13;0.90;;;15.20;99.90;;;;;;5114883;27;21024;-70
2022/09/18 13:25:59;;;;;;;2.97;0.90;;;15.00;99.90;;;;;;5117087;27;20453;-70
2022/09/18 13:28:49;;;;;;;2.97;0.93;;;14.80;99.90;;;;;;5117623;27;20467;-70
2022/09/18 13:31:38;;;;;;;2.07;0.93;;;14.60;99.90;;;;;;5111542;27;20490;-70
2022/09/18 13:34:26;;;;;;;1.17;0.87;;;14.30;99.90;;;;;;5116879;27;21016;-71
2022/09/18 13:37:18;;;;;;;3.30;1.20;;;14.10;99.90;;;;;;5113410;27;20439;-70
2022/09/18 13:40:30;;;;;;;2.07;0.90;;;13.70;99.90;;;;;;5101566;27;20455;-70
2022/09/18 13:43:38;;;;;;;2.63;0.83;;;13.60;99.90;;;;;;5116068;27;20467;-70
2022/09/18 13:46:32;;;;;;;2.17;0.60;;;13.50;99.90;;;;;;5110619;27;20461;-71
2022/09/18 13:49:28;;;;;;;1.03;0.70;;;13.40;99.90;;;;;;5113185;27;20919;-70
2022/09/18 13:52:42;;;;;;;3.90;1.20;;;13.20;99.90;;;;;;5106083;27;21057;-71
2022/09/18 13:55:48;;;;;;;2.87;0.90;;;13.20;99.90;;;;;;5112002;27;20467;-71
2022/09/18 13:58:54;;;;;;;2.33;1.57;;;13.10;99.90;;;;;;5108209;27;20459;-71
2022/09/18 14:01:59;;;;;;;1.90;0.80;;;13.00;99.90;;;;;;5098513;27;20494;-69
2022/09/18 14:05:27;;;;;;;1.73;1.10;;;12.80;99.90;;;;;;5109326;28;20844;-70
2022/09/18 14:08:38;;;;;;;4.50;0.90;;;12.80;99.90;;;;;;5109789;27;20701;-70
2022/09/18 14:11:30;;;;;;;1.30;0.97;;;12.40;99.90;;;;;;5111406;27;20966;-70
2022/09/18 14:14:23;;;;;;;1.50;0.70;;;12.10;99.90;;;;;;5108375;27;21162;-70
2022/09/18 14:17:14;;;;;;;1.87;0.90;;;12.00;99.90;;;;;;5116233;27;20451;-71
2022/09/18 14:20:17;;;;;;;1.57;0.70;;;11.90;99.90;;;;;;5112408;27;20451;-70
2022/09/18 14:23:47;;;;;;;2.10;0.60;;;11.90;99.90;;;;;;5113202;27;20947;-70
2022/09/18 14:26:59;;;;;;;2.20;0.80;;;11.90;99.90;;;;;;5067421;27;20478;-70
2022/09/18 14:29:53;;;;;;;2.30;0.90;;;11.90;99.90;;;;;;5118970;27;20470;-70
2022/09/18 14:32:48;;;;;;;2.20;0.70;;;12.00;99.90;;;;;;5118375;27;20554;-70
2022/09/18 14:35:53;;;;;;;1.87;0.90;;;12.00;99.90;;;;;;5118322;27;20454;-71
2022/09/18 14:38:41;;;;;;;3.10;0.93;;;12.00;99.90;;;;;;5119070;27;20453;-71
2022/09/18 14:41:35;;;;;;;1.47;0.93;;;12.00;99.90;;;;;;5117602;27;20467;-70
2022/09/18 14:44:27;;;;;;;0.90;0.80;;;12.00;99.90;;;;;;5120054;27;20463;-71
2022/09/18 14:47:20;;;;;;;0.80;0.80;;;12.00;99.90;;;;;;5104855;27;22472;-71
2022/09/18 14:50:26;;;;;;;1.80;0.80;;;12.00;99.90;;;;;;5107212;27;20516;-70
2022/09/18 14:53:23;;;;;;;1.80;1.00;;;12.20;99.90;;;;;;5091993;27;20539;-70
2022/09/18 14:56:15;;;;;;;1.10;1.00;;;12.40;99.90;;;;;;5102940;27;20455;-70
2022/09/18 14:59:06;;;;;;;2.60;1.00;;;12.60;99.90;;;;;;5108813;27;20463;-70
2022/09/18 15:02:11;;;;;;;2.50;1.13;;;12.60;99.90;;;;;;5101646;27;20471;-70
2022/09/18 15:05:02;;;;;;;2.10;0.90;;;12.80;99.90;;;;;;5103490;27;20567;-70
2022/09/18 15:07:53;;;;;;;3.00;1.50;;;12.70;99.90;;;;;;5099672;27;20443;-71
2022/09/18 15:10:46;;;;;;;2.27;1.03;;;12.70;99.90;;;;;;5097755;27;20478;-70
2022/09/18 15:13:37;;;;;;;4.43;1.17;;;12.80;99.90;;;;;;5113666;27;20474;-70
2022/09/18 15:16:28;;;;;;;2.70;0.90;;;12.90;99.90;;;;;;5108989;27;20475;-70
2022/09/18 15:19:17;;;;;;;2.60;0.90;;;13.00;99.90;;;;;;5115439;27;20458;-70
2022/09/18 15:22:06;;;;;;;2.27;1.20;;;12.90;99.90;;;;;;5100961;27;20474;-70
2022/09/18 15:24:57;;;;;;;1.27;0.80;;;12.90;99.90;;;;;;5108402;27;20515;-70
2022/09/18 15:27:46;;;;;;;2.97;1.10;;;12.90;99.90;;;;;;5113200;27;20564;-70
2022/09/18 15:30:36;;;;;;;1.57;1.00;;;13.00;99.90;;;;;;5098855;27;20467;-70
2022/09/18 15:33:27;;;;;;;2.00;1.13;;;13.00;99.90;;;;;;5095383;27;20478;-72
2022/09/18 15:36:24;;;;;;;4.67;1.30;;;12.90;99.90;;;;;;5097566;27;20452;-72
2022/09/18 15:39:29;;;;;;;3.10;1.30;;;12.90;99.90;;;;;;5101291;27;20443;-72
2022/09/18 15:42:27;;;;;;;1.50;1.20;;;12.90;99.90;;;;;;5102338;27;20471;-71
2022/09/18 15:45:20;;;;;;;6.60;1.57;;;13.00;99.90;;;;;;5103440;27;20475;-70
2022/09/18 15:48:32;;;;;;;1.90;1.20;;;13.00;99.90;;;;;;5114064;27;20462;-71
2022/09/18 15:51:27;;;;;;;2.73;1.07;;;12.90;99.90;;;;;;5099829;27;20487;-71
2022/09/18 15:54:26;;;;;;;2.43;1.20;;;12.80;99.90;;;;;;5107382;27;20706;-71
2022/09/18 15:57:15;;;;;;;4.30;1.30;;;12.80;99.90;;;;;;5107703;27;20489;-70
2022/09/18 16:00:05;;;;;;;1.83;1.10;;;12.80;99.90;;;;;;5100900;27;20547;-70
2022/09/18 16:02:56;;;;;;;2.83;1.30;;;12.70;99.90;;;;;;5106707;27;20475;-70
2022/09/18 16:05:52;;;;;;;3.57;1.47;;;12.60;99.90;;;;;;5095595;27;20458;-71
2022/09/18 16:08:42;;;;;;;3.63;1.20;;;12.60;99.90;;;;;;5101722;27;20447;-70
2022/09/18 16:11:39;;;;;;;2.40;1.20;;;12.70;99.90;;;;;;5117767;27;20834;-71
2022/09/18 16:14:38;;;;;;;4.60;1.77;;;12.60;99.90;;;;;;5111107;27;20479;-73
2022/09/18 16:17:38;;;;;;;0.87;0.80;;;12.60;99.90;;;;;;5117946;27;20453;-71
2022/09/18 16:20:37;;;;;;;2.33;0.87;;;12.60;99.90;;;;;;5118333;27;20451;-73